Timeline UpdatesTrip UpdatesNews PostsPvt PostsTravel TipsAdmin PostsConv PostsFollowed PostsChat RequestsBlog PostsPNR Posts

Disclaimer
Search
 
 
Mon Apr 21, 2014 07:33:37 ISTHomeTrainsΣChainsAtlasPNRForumGalleryNewsFAQTripsMembersLoginFeedback
No Recent News for this Train
Other Trains in the News **new
Latest...
Diverted via Dankuni and will stop at Kamarkundu from 31/1/14-7/2/14 #979555
Thu Jan 30, 2014 (07:14PM)
⇐ Return Journey: Train# 53131

53132/Muzaffarpur Sealdah Passenger (UnReserved)

Sep 11 2013 (10:52PM)
Change Departure Station:
Change Arrival Station:
Post a Train Travel TipPost a Train Travel Tip **new
Post a Comment/Question/Picture/VideoPost a Comment/Question/Picture/Video
Pantry/Catering
✕ NO Pantry Car
✕ NO Catering
RSA - Rake Sharing
Rake/Coach Composition
ENG-SLR-GEN-GEN-GEN-GEN-GEN-GEN-GEN-SLR
Loco
WDM-2/WDM-3A from MFP to BJU, then, ASN WAM-4/WAG-5A/WAG-5HA from BJU...
Read more...
to SDAH
News    PNR    Forum    Time-Table    Availability    Fare Chart    Map    Arr/Dep History    Trips    Gallery    ΣChains    X/O    Timeline    
Travel Time: 5h 5m    16 halts    Distance: 213 km    Avg Speed: 41 km/hr
Type: Passenger
Zone: ER/Eastern
Departs @ 21:35 (Avg 1h 14m late)
Platform# ???
SMTWTFS
Asansol Junction/ASN 
Arrives @ 02:40 +1 night (Avg 1h 35m late)
Platform# ???
SMTWTFS
Dum Dum Junction/DDJ 

16 halts. 52 intermediate Stations between Asansol Junction and Dum Dum Junction

Show ALL intermediate Stations  Show Old Time-Table

#CodeStation NameX/OArrivesAvgDepartsAvgHaltPFDay#KmSpeedElevZoneAddress
1MFPMuzaffarpur Junction (6)  -07:45+4--1-356.53257mECRMuzaffarpur, Bihar
2NRPANarayanpur Anant (3)X  07:54+907:55+101m--1-351.74356mECRMuzaffarpur, Bihar
3SLTSilaut  08:03+1008:04+111m--1-346.05857mECRMuzaffarpur, Bihar
4SIHOSiho  08:12+1208:13+181m--1-338.25153mECRNational Highway 28, Bihar
5DOLDholi (2)X  08:21+1908:22+211m--1-331.44052mECRDistt. Muzaffarpur, Bihar
6DUBHDubaha  08:31+2108:32+241m--1-325.44955mECRDubha Station, Bihar
7KRBPKhudiram B Pusa  08:41+2608:42+281m--1-318.04952mECRDistt. Samastipur, Bihar
8KPGMKarpurigram (3)X  08:51+3108:52+361m--1-310.72151mECRState Highway 49, Bihar
9SPJSamastipur Junction (9)X  09:10+3709:20+3710m--1-304.44955mECRSamastipur, Bihar
10UJPUjiarpur (2)X  09:31+4509:32+481m--1-295.44751mECRSamastipur, Bihar
11NAZJNazirGanj  09:40+5109:41+551m--1-289.14751mECRNazirGanj, Bihar
12DSSDalsingh Sarai (2)X  09:51+5609:52+1:021m21-281.22749mECR06278-221238, Bihar
13STJTSathajagatX  10:02+1:0310:03+1:071m--1-276.72449mECRSathajagat, Bihar
14BCABachwara Junction  10:19+1:0110:20+1:161m--1-270.22446mECRBegusarai, Bihar
15TGATeghra (3)X  10:42+1:0910:43+1:161m--1-261.31148mECRBegusarai, Bihar
16BJUBarauni Junction (9)11:25+5711:50+1:1925m--1-253.926 ECRBegusarai, Bihar
17SAEDinkar Gram Simaria (3)  12:04+1:3512:05+1:411m--1-247.919228mECRBegusarai, Bihar
18RJORajendra Pul (1)  12:14+1:4512:15+2:021m11-245.02849mECRSimaria, Bihar
19HTZUHathidah Upper (1)  12:22+1:5912:24+1:572m11-241.81451mECRMurarpur, Bihar
20RDUMRampur DumraX  13:14+1:3113:15+1:351m--1-229.93746mECRNational Highway 80, Bihar
21BRYABarhiya  13:24+1:3013:25+1:341m--1-224.32047mECRBarahiya, Bihar
22MKBMankatha  13:53+1:2713:55+1:332m--1-214.93347mECRNational Highway 80, Bihar
23LKRLuckeesarai Junction (2)X  14:05+1:3414:07+1:342m--1-209.3652mECRLakhisarai, Bihar
24KIULKiul Junction (5)X  14:20+1:2114:30+1:2410m--1-207.93353mECRDist. Lakhisarai, Bihar
25BSQPBansipurX  14:38+1:3714:40+1:372m--1-203.61753mECRKiul, Bihar
26MNPMananpur (2)  14:49+1:4014:50+1:431m--1-201.02257mECRState Highway 18, Bihar
27BFMBhalui  14:57+1:4514:58+1:461m--1-198.49756mECRState Highway 18, Bihar
28JMUJamui (3)  15:09+1:4415:10+1:451m--1-180.61581mECRState Highway 72, Bihar
29CUXChaura  15:20+1:5215:21+1:531m--1-178.17979mECRState Highway 18, Bihar
30GHRGidhaur (2)X  15:30+1:5215:31+1:541m--1-166.362106mECRState Highway 18, Bihar
31DPXDadpur  15:38+1:5315:39+1:541m--1-159.013116mECRDadpur, Bihar
32JAJJhajha (4)X  16:00+1:4516:10+1:4810m--1-154.644143mECRJhajha, Bihar
33NRGONarganjo Halt (2)  16:21+1:5016:22+1:501m--1-146.629188mERState Highway 18, Bihar
34STLSimultala (2)X  16:44+1:4016:45+1:431m--1-136.047247mERSimultala, Bihar
35LHBLahabon  16:58+1:4316:59+1:441m--1-125.846259mERDeoghar, Jharkhand
36JSMEJasidih Junction (5)  17:19+1:4917:22+1:533m--1-110.555271mERJasidih, Jharkhand
37KBQKumrabad RohiniX  17:29+1:5817:30+1:581m--1-104.173231mERKumrabad Rohi, Jharkhand
38SNQSankarpurX  17:34+1:5817:35+1:581m--1-99.341242mERDeoghar, Jharkhand
39MUWMathurapur (2)  17:44+1:5817:45+1:581m--1-93.144261mERDeoghar, Jharkhand
40MDPMadhupur Junction (4)X  18:01+1:5918:58+1:2157m--1-81.559254mER06432-224478, Jharkhand
41JRWJoramow  19:08+1:1719:09+1:171m--1-71.646208mERBarrage on Ajoy River, Jharkhand
42MNCMadankata (2)X  19:16+1:1619:17+1:161m--1-66.144208mERBarrage on Ajoy River, Jharkhand
43VDSVidyasagar (2)XO  19:29+1:1419:30+1:161m--1-57.363250mERJamtara, Jharkhand
44JMTJamtara (2)X  19:47+1:1619:48+1:181m21-39.445201mERJamtara, Jharkhand
45CRJChittaranjan (3)X  20:07+1:1420:10+1:153m21-25.146182mERMihijam, Jharkhand
46RNPRRupnarayanpur (3)  20:16+1:1920:17+1:191m--1-20.553191mERChittaranjan, West Bengal
47SLSSalanpur (2)  20:25+1:1720:26+1:201m--1-13.49156mERSalanpur Station, West Bengal
48STNSitarampur Junction (5)X  20:58+1:0221:00+1:102m--1-8.837139mERG T Rd Before Asansol, West Bengal
49BCQBarachak Junction (4)X  21:06+1:1321:07+1:161m--1-5.138127mERdist - bardhaman, West Bengal
50ASN»Asansol Junction (7)»XO  21:15+1:1421:35+1:1420m--10.064113mERDist - bardhaman, West Bengal
51RNGRaniGanj (4)  21:52+1:2121:56+1:314m--118.11392mERRaniganj, West Bengal
52UDLAndal Junction (6)X  22:30+1:1322:33+1:133m--125.46286mERAndal, West Bengal
53OYRWaria (4)  22:41+1:1622:42+1:161m--133.64172mERDurgapur, West Bengal
54DGRDurgapur (5)  22:55+1:0823:00+1:075m--142.45571mERDurgapur, West Bengal
55PANPanagarh (4)  23:17+1:1023:18+1:121m--158.16570mERKaksa, West Bengal
56KANKhana Junction (5)X  23:50+1:0923:51+1:091m--192.96542mERDist - Bardhaman, West Bengal
57BWNBarddhaman Junction (8)X  00:03+1:1400:08+1:185m--2106.07034mERDist - Barddhaman, West Bengal
58BDCBandel Junction (7)  01:06+1:4401:11+1:435m--2173.23314mERdist - HOOGHLY, West Bengal
59HYGHooghly Ghat (2)  01:18+1:4701:19+1:471m--2177.01417mERdist - Hooghly, West Bengal
60GFAEGarifa (2)  01:25+1:4601:26+1:461m--2178.51915mERState Highway 1, West Bengal
61NHNaihati Junction (5)  01:36+1:4401:44+1:418m--2181.63415mERdist - North 24 paraganas - 743165, West Bengal
62KNRKankinara (3)  01:49+1:4301:51+1:432m--2184.457 ERState Highway 1, West Bengal
63SNRShyamnagar (4)  01:56+1:4801:57+1:481m--2189.24916mERDist - North 24 paraganas, West Bengal
64IPIchhapur (4)  02:01+1:4302:02+1:431m--2192.54412mERIchapur, West Bengal
65BPBarrackpore (5)  02:08+1:4102:16+1:388m22196.93212mERDist - 24 paraganas (N), West Bengal
66TGHTitagarh (4)  02:20+1:3902:22+1:392m--2199.14510mERDIST - 24 Paraganas ( North ), West Bengal
67DDJ•Dum Dum Junction (5)•  02:40+1:3502:41+1:351m--2212.6910mERKolkata - 700028, West Bengal
68SDAHKolkata Sealdah (20)  03:25+1:21-72219.2-8mERPh : 033-23503535 (For North: APC Roy Road) Kolkata 700014, West Bengal
Scroll to Top
Scroll to Bottom